sensor_id;sensor_type;location;lat;lon;timestamp;P1;durP1;ratioP1;P2;durP2;ratioP2
34521;SDS011;25561;48.888;8.736;2022-09-13T05:32:41;7.35;;;2.92;;
34521;SDS011;25561;48.888;8.736;2022-09-13T05:35:43;6.38;;;3.20;;
34521;SDS011;25561;48.888;8.736;2022-09-13T05:38:44;4.90;;;2.80;;
34521;SDS011;25561;48.888;8.736;2022-09-13T05:41:46;9.98;;;3.00;;
34521;SDS011;25561;48.888;8.736;2022-09-13T05:44:48;5.82;;;2.45;;
34521;SDS011;25561;48.888;8.736;2022-09-13T05:47:50;8.23;;;2.10;;
34521;SDS011;25561;48.888;8.736;2022-09-13T05:50:52;4.13;;;2.45;;
34521;SDS011;25561;48.888;8.736;2022-09-13T05:53:58;3.45;;;2.28;;
34521;SDS011;25561;48.888;8.736;2022-09-13T05:57:00;16.83;;;4.15;;
34521;SDS011;25561;48.888;8.736;2022-09-13T06:00:02;16.52;;;5.55;;
34521;SDS011;25561;48.888;8.736;2022-09-13T06:03:05;9.05;;;3.85;;
34521;SDS011;25561;48.888;8.736;2022-09-13T06:06:08;7.55;;;5.03;;
34521;SDS011;25561;48.888;8.736;2022-09-13T06:09:11;14.57;;;3.35;;
34521;SDS011;25561;48.888;8.736;2022-09-13T06:12:13;10.55;;;3.25;;
34521;SDS011;25561;48.888;8.736;2022-09-13T06:49:57;5.80;;;2.33;;
34521;SDS011;25561;48.888;8.736;2022-09-13T06:52:59;3.38;;;1.90;;
34521;SDS011;25561;48.888;8.736;2022-09-13T06:56:03;2.97;;;2.05;;
34521;SDS011;25561;48.888;8.736;2022-09-13T06:59:08;4.43;;;2.17;;
34521;SDS011;25561;48.888;8.736;2022-09-13T07:02:11;7.93;;;1.88;;
34521;SDS011;25561;48.888;8.736;2022-09-13T07:05:14;2.97;;;1.90;;
34521;SDS011;25561;48.888;8.736;2022-09-13T07:08:18;5.18;;;1.80;;
34521;SDS011;25561;48.888;8.736;2022-09-13T07:11:21;4.95;;;1.83;;
34521;SDS011;25561;48.888;8.736;2022-09-13T07:14:26;5.18;;;2.85;;
34521;SDS011;25561;48.888;8.736;2022-09-13T07:17:29;2.60;;;1.92;;
34521;SDS011;25561;48.888;8.736;2022-09-13T07:20:32;4.35;;;2.13;;
34521;SDS011;25561;48.888;8.736;2022-09-13T07:23:35;8.90;;;3.70;;
34521;SDS011;25561;48.888;8.736;2022-09-13T07:26:38;7.18;;;2.22;;
34521;SDS011;25561;48.888;8.736;2022-09-13T07:29:41;3.08;;;2.22;;
34521;SDS011;25561;48.888;8.736;2022-09-13T07:32:44;11.40;;;2.15;;
34521;SDS011;25561;48.888;8.736;2022-09-13T07:35:53;4.70;;;1.70;;
34521;SDS011;25561;48.888;8.736;2022-09-13T07:38:56;4.90;;;1.60;;
34521;SDS011;25561;48.888;8.736;2022-09-13T07:42:00;3.88;;;2.40;;
34521;SDS011;25561;48.888;8.736;2022-09-13T07:45:05;7.90;;;2.30;;
34521;SDS011;25561;48.888;8.736;2022-09-13T07:48:07;10.07;;;2.42;;
34521;SDS011;25561;48.888;8.736;2022-09-13T07:51:11;3.45;;;2.13;;
34521;SDS011;25561;48.888;8.736;2022-09-13T07:54:15;12.68;;;2.85;;
34521;SDS011;25561;48.888;8.736;2022-09-13T07:57:18;4.95;;;2.13;;
34521;SDS011;25561;48.888;8.736;2022-09-13T08:00:20;5.85;;;2.40;;
34521;SDS011;25561;48.888;8.736;2022-09-13T08:03:22;3.13;;;1.80;;
34521;SDS011;25561;48.888;8.736;2022-09-13T08:06:25;6.55;;;1.90;;
34521;SDS011;25561;48.888;8.736;2022-09-13T08:09:28;4.47;;;2.17;;
34521;SDS011;25561;48.888;8.736;2022-09-13T08:12:30;6.68;;;2.45;;
34521;SDS011;25561;48.888;8.736;2022-09-13T08:15:32;9.02;;;2.67;;
34521;SDS011;25561;48.888;8.736;2022-09-13T08:18:34;9.23;;;2.03;;
34521;SDS011;25561;48.888;8.736;2022-09-13T08:21:37;10.48;;;2.30;;
34521;SDS011;25561;48.888;8.736;2022-09-13T08:24:40;2.50;;;2.03;;
34521;SDS011;25561;48.888;8.736;2022-09-13T08:27:42;8.07;;;2.58;;
34521;SDS011;25561;48.888;8.736;2022-09-13T08:30:44;7.88;;;2.75;;
34521;SDS011;25561;48.888;8.736;2022-09-13T08:33:46;6.20;;;1.92;;
34521;SDS011;25561;48.888;8.736;2022-09-13T08:36:49;7.60;;;2.28;;
34521;SDS011;25561;48.888;8.736;2022-09-13T08:39:50;11.30;;;2.53;;
34521;SDS011;25561;48.888;8.736;2022-09-13T08:46:23;8.63;;;2.10;;
34521;SDS011;25561;48.888;8.736;2022-09-13T08:49:30;11.23;;;3.20;;
34521;SDS011;25561;48.888;8.736;2022-09-13T08:52:44;18.52;;;2.55;;
34521;SDS011;25561;48.888;8.736;2022-09-13T08:56:02;8.18;;;2.25;;
34521;SDS011;25561;48.888;8.736;2022-09-13T09:02:52;7.45;;;2.35;;
34521;SDS011;25561;48.888;8.736;2022-09-13T09:06:13;11.45;;;2.05;;
34521;SDS011;25561;48.888;8.736;2022-09-13T09:09:18;22.38;;;2.85;;
34521;SDS011;25561;48.888;8.736;2022-09-13T09:12:24;13.18;;;3.13;;
34521;SDS011;25561;48.888;8.736;2022-09-13T09:15:50;10.88;;;3.13;;
34521;SDS011;25561;48.888;8.736;2022-09-13T09:18:55;10.68;;;2.97;;
34521;SDS011;25561;48.888;8.736;2022-09-13T09:22:04;6.10;;;2.58;;
34521;SDS011;25561;48.888;8.736;2022-09-13T09:25:24;14.57;;;2.42;;
34521;SDS011;25561;48.888;8.736;2022-09-13T09:28:27;12.18;;;2.97;;
34521;SDS011;25561;48.888;8.736;2022-09-13T09:31:35;13.10;;;2.70;;
34521;SDS011;25561;48.888;8.736;2022-09-13T09:38:24;10.32;;;2.30;;
34521;SDS011;25561;48.888;8.736;2022-09-13T09:41:44;9.48;;;2.60;;
34521;SDS011;25561;48.888;8.736;2022-09-13T09:44:48;16.50;;;2.72;;
34521;SDS011;25561;48.888;8.736;2022-09-13T09:47:53;15.13;;;2.92;;
34521;SDS011;25561;48.888;8.736;2022-09-13T09:50:57;17.30;;;2.53;;
34521;SDS011;25561;48.888;8.736;2022-09-13T09:54:01;6.82;;;2.63;;
34521;SDS011;25561;48.888;8.736;2022-09-13T09:57:06;11.13;;;1.83;;
34521;SDS011;25561;48.888;8.736;2022-09-13T10:00:10;17.17;;;2.70;;
34521;SDS011;25561;48.888;8.736;2022-09-13T10:03:15;9.40;;;2.50;;
34521;SDS011;25561;48.888;8.736;2022-09-13T10:06:21;9.88;;;1.95;;
34521;SDS011;25561;48.888;8.736;2022-09-13T10:09:28;6.72;;;1.98;;
34521;SDS011;25561;48.888;8.736;2022-09-13T10:12:32;6.05;;;1.63;;
34521;SDS011;25561;48.888;8.736;2022-09-13T10:15:37;4.63;;;1.70;;
34521;SDS011;25561;48.888;8.736;2022-09-13T10:19:16;2.53;;;1.35;;
34521;SDS011;25561;48.888;8.736;2022-09-13T10:22:25;9.85;;;2.03;;
34521;SDS011;25561;48.888;8.736;2022-09-13T10:25:28;7.47;;;1.70;;
34521;SDS011;25561;48.888;8.736;2022-09-13T10:28:34;6.63;;;1.77;;
34521;SDS011;25561;48.888;8.736;2022-09-13T10:31:42;13.73;;;1.80;;
34521;SDS011;25561;48.888;8.736;2022-09-13T10:34:50;4.28;;;1.38;;
34521;SDS011;25561;48.888;8.736;2022-09-13T10:37:52;5.95;;;1.55;;
34521;SDS011;25561;48.888;8.736;2022-09-13T10:40:55;6.63;;;1.35;;
34521;SDS011;25561;48.888;8.736;2022-09-13T10:43:58;5.78;;;1.02;;
34521;SDS011;25561;48.888;8.736;2022-09-13T10:47:12;5.10;;;1.40;;
34521;SDS011;25561;48.888;8.736;2022-09-13T10:50:21;8.37;;;1.17;;
34521;SDS011;25561;48.888;8.736;2022-09-13T10:53:29;3.67;;;1.60;;
34521;SDS011;25561;48.888;8.736;2022-09-13T10:56:36;6.20;;;1.30;;
34521;SDS011;25561;48.888;8.736;2022-09-13T10:59:39;7.80;;;1.30;;
34521;SDS011;25561;48.888;8.736;2022-09-13T11:02:43;1.45;;;1.15;;
34521;SDS011;25561;48.888;8.736;2022-09-13T11:06:15;3.40;;;1.20;;
34521;SDS011;25561;48.888;8.736;2022-09-13T11:09:31;3.38;;;1.20;;
34521;SDS011;25561;48.888;8.736;2022-09-13T11:12:42;7.93;;;1.42;;
34521;SDS011;25561;48.888;8.736;2022-09-13T11:16:20;6.03;;;1.30;;
34521;SDS011;25561;48.888;8.736;2022-09-13T11:19:38;2.33;;;1.20;;
34521;SDS011;25561;48.888;8.736;2022-09-13T11:23:07;6.43;;;1.90;;
34521;SDS011;25561;48.888;8.736;2022-09-13T11:36:52;3.28;;;1.50;;
34521;SDS011;25561;48.888;8.736;2022-09-13T11:40:27;9.70;;;2.08;;
34521;SDS011;25561;48.888;8.736;2022-09-13T11:46:58;7.60;;;1.58;;
34521;SDS011;25561;48.888;8.736;2022-09-13T11:57:12;5.07;;;1.80;;
34521;SDS011;25561;48.888;8.736;2022-09-13T12:00:20;3.72;;;1.30;;
34521;SDS011;25561;48.888;8.736;2022-09-13T12:06:52;9.43;;;1.33;;
34521;SDS011;25561;48.888;8.736;2022-09-13T12:10:03;5.70;;;1.60;;
34521;SDS011;25561;48.888;8.736;2022-09-13T12:13:17;6.07;;;1.65;;
34521;SDS011;25561;48.888;8.736;2022-09-13T12:19:45;5.75;;;1.23;;
34521;SDS011;25561;48.888;8.736;2022-09-13T12:25:56;10.25;;;1.77;;
34521;SDS011;25561;48.888;8.736;2022-09-13T12:29:35;9.45;;;1.30;;
34521;SDS011;25561;48.888;8.736;2022-09-13T12:32:46;7.13;;;1.90;;
34521;SDS011;25561;48.888;8.736;2022-09-13T12:35:51;6.43;;;1.88;;
34521;SDS011;25561;48.888;8.736;2022-09-13T12:39:18;3.08;;;1.30;;
34521;SDS011;25561;48.888;8.736;2022-09-13T12:42:38;4.25;;;1.35;;
34521;SDS011;25561;48.888;8.736;2022-09-13T12:46:00;10.45;;;1.83;;
34521;SDS011;25561;48.888;8.736;2022-09-13T12:49:32;6.72;;;1.60;;
34521;SDS011;25561;48.888;8.736;2022-09-13T12:59:53;4.00;;;1.23;;
34521;SDS011;25561;48.888;8.736;2022-09-13T13:06:28;4.55;;;1.20;;
34521;SDS011;25561;48.888;8.736;2022-09-13T13:09:37;3.33;;;1.48;;
34521;SDS011;25561;48.888;8.736;2022-09-13T13:12:42;3.05;;;1.90;;
34521;SDS011;25561;48.888;8.736;2022-09-13T13:18:51;1.63;;;0.90;;
34521;SDS011;25561;48.888;8.736;2022-09-13T13:25:52;5.20;;;1.40;;
34521;SDS011;25561;48.888;8.736;2022-09-13T13:29:10;4.93;;;1.23;;
34521;SDS011;25561;48.888;8.736;2022-09-13T13:32:30;6.80;;;1.45;;
34521;SDS011;25561;48.888;8.736;2022-09-13T13:35:32;4.00;;;1.30;;
34521;SDS011;25561;48.888;8.736;2022-09-13T13:38:39;3.20;;;1.45;;
34521;SDS011;25561;48.888;8.736;2022-09-13T13:41:48;3.58;;;1.45;;
34521;SDS011;25561;48.888;8.736;2022-09-13T13:45:04;3.35;;;1.50;;
34521;SDS011;25561;48.888;8.736;2022-09-13T13:48:15;6.67;;;1.27;;
34521;SDS011;25561;48.888;8.736;2022-09-13T13:51:37;9.32;;;1.50;;
34521;SDS011;25561;48.888;8.736;2022-09-13T13:57:49;4.07;;;1.23;;
34521;SDS011;25561;48.888;8.736;2022-09-13T14:01:13;6.15;;;1.42;;
34521;SDS011;25561;48.888;8.736;2022-09-13T14:08:28;11.93;;;1.55;;
34521;SDS011;25561;48.888;8.736;2022-09-13T14:11:52;3.35;;;1.50;;
34521;SDS011;25561;48.888;8.736;2022-09-13T14:15:08;4.25;;;1.45;;
34521;SDS011;25561;48.888;8.736;2022-09-13T14:22:04;4.35;;;1.50;;
34521;SDS011;25561;48.888;8.736;2022-09-13T14:25:14;5.05;;;1.23;;
34521;SDS011;25561;48.888;8.736;2022-09-13T14:28:20;7.22;;;1.30;;
34521;SDS011;25561;48.888;8.736;2022-09-13T14:31:23;3.25;;;1.35;;
34521;SDS011;25561;48.888;8.736;2022-09-13T14:34:27;4.13;;;1.33;;
34521;SDS011;25561;48.888;8.736;2022-09-13T14:37:32;8.98;;;1.23;;
34521;SDS011;25561;48.888;8.736;2022-09-13T14:43:38;6.00;;;1.55;;
34521;SDS011;25561;48.888;8.736;2022-09-13T14:46:41;7.32;;;1.73;;
34521;SDS011;25561;48.888;8.736;2022-09-13T14:49:48;6.72;;;1.73;;
34521;SDS011;25561;48.888;8.736;2022-09-13T14:52:55;6.88;;;1.63;;
34521;SDS011;25561;48.888;8.736;2022-09-13T14:56:02;5.80;;;1.60;;
34521;SDS011;25561;48.888;8.736;2022-09-13T14:59:12;3.60;;;1.63;;
34521;SDS011;25561;48.888;8.736;2022-09-13T15:02:19;5.75;;;1.23;;
34521;SDS011;25561;48.888;8.736;2022-09-13T15:05:25;6.20;;;1.20;;
34521;SDS011;25561;48.888;8.736;2022-09-13T15:11:33;4.53;;;1.60;;
34521;SDS011;25561;48.888;8.736;2022-09-13T15:14:38;6.18;;;1.50;;
34521;SDS011;25561;48.888;8.736;2022-09-13T15:21:04;7.15;;;1.58;;
34521;SDS011;25561;48.888;8.736;2022-09-13T15:24:17;6.10;;;1.55;;
34521;SDS011;25561;48.888;8.736;2022-09-13T15:27:27;8.20;;;1.75;;
34521;SDS011;25561;48.888;8.736;2022-09-13T15:30:45;7.35;;;1.40;;
34521;SDS011;25561;48.888;8.736;2022-09-13T15:33:47;4.97;;;1.60;;
34521;SDS011;25561;48.888;8.736;2022-09-13T15:37:07;3.75;;;1.35;;
34521;SDS011;25561;48.888;8.736;2022-09-13T15:40:13;3.88;;;1.33;;
34521;SDS011;25561;48.888;8.736;2022-09-13T15:43:19;3.47;;;1.60;;
34521;SDS011;25561;48.888;8.736;2022-09-13T15:46:20;4.13;;;1.45;;
34521;SDS011;25561;48.888;8.736;2022-09-13T15:49:24;6.85;;;1.70;;
34521;SDS011;25561;48.888;8.736;2022-09-13T15:52:28;4.97;;;1.88;;
34521;SDS011;25561;48.888;8.736;2022-09-13T15:55:30;6.22;;;1.63;;
34521;SDS011;25561;48.888;8.736;2022-09-13T15:58:32;2.58;;;1.33;;
